createdAt,value
2022-12-11T00:03:56.729Z,88.84
2022-12-11T00:18:58.668Z,88.94
2022-12-11T00:34:01.949Z,89.03
2022-12-11T00:49:04.031Z,89.03
2022-12-11T01:04:06.230Z,89.39
2022-12-11T01:19:08.188Z,89.28
2022-12-11T01:34:10.394Z,89.32
2022-12-11T01:49:14.123Z,89.59
2022-12-11T02:04:16.711Z,90.12
2022-12-11T02:20:11.809Z,90.31
2022-12-11T02:35:24.550Z,90.58
2022-12-11T02:50:28.050Z,91.17
2022-12-11T03:05:30.728Z,91.51
2022-12-11T03:20:41.387Z,92.10
2022-12-11T03:35:49.248Z,92.12
2022-12-11T03:50:52.050Z,91.97
2022-12-11T04:05:55.609Z,91.92
2022-12-11T04:21:16.130Z,92.00
2022-12-11T04:36:18.252Z,92.14
2022-12-11T04:51:20.447Z,91.64
2022-12-11T05:06:22.432Z,91.90
2022-12-11T05:21:24.353Z,91.47
2022-12-11T05:36:31.957Z,91.57
2022-12-11T05:51:35.071Z,91.32
2022-12-11T06:06:37.993Z,91.43
2022-12-11T06:21:39.893Z,91.60
2022-12-11T06:36:41.793Z,91.94
2022-12-11T06:51:43.702Z,92.32
2022-12-11T07:06:47.473Z,92.18
2022-12-11T07:21:49.377Z,91.69
2022-12-11T07:36:52.362Z,91.52
2022-12-11T07:51:55.038Z,91.20
2022-12-11T08:06:58.142Z,91.16
2022-12-11T08:22:00.073Z,90.58
2022-12-11T08:37:01.935Z,90.62
2022-12-11T08:52:07.432Z,90.41
2022-12-11T09:07:09.346Z,90.59
2022-12-11T09:22:12.839Z,90.74
2022-12-11T09:37:14.718Z,90.93
2022-12-11T09:52:23.349Z,91.30
2022-12-11T10:07:31.028Z,92.12
2022-12-11T10:22:34.189Z,92.32
2022-12-11T10:37:37.907Z,91.92
2022-12-11T10:52:45.248Z,91.73
2022-12-11T11:07:47.271Z,92.07
2022-12-11T11:22:55.527Z,91.36
2022-12-11T11:38:04.056Z,91.35
2022-12-11T11:53:14.987Z,91.04
2022-12-11T12:08:41.667Z,91.08
2022-12-11T12:24:15.448Z,91.18
2022-12-11T12:39:46.548Z,90.22
2022-12-11T12:55:14.106Z,90.37
2022-12-11T13:10:33.866Z,90.86
2022-12-11T13:25:55.170Z,90.70
2022-12-11T13:56:18.288Z,89.70
2022-12-11T14:11:43.599Z,90.02
2022-12-11T14:26:51.970Z,90.33
2022-12-11T14:42:03.368Z,90.68
2022-12-11T14:57:07.869Z,90.57
2022-12-11T15:12:20.526Z,91.07
2022-12-11T15:27:37.187Z,90.76
2022-12-11T15:42:42.047Z,90.19
2022-12-11T15:57:54.401Z,90.01
2022-12-11T16:12:59.929Z,90.07
2022-12-11T16:28:02.195Z,89.68
2022-12-11T16:43:06.335Z,89.95
2022-12-11T16:58:12.502Z,90.01
2022-12-11T17:13:18.315Z,89.93
2022-12-11T17:28:20.678Z,89.61
2022-12-11T17:43:23.293Z,89.63
2022-12-11T17:58:25.270Z,89.76
2022-12-11T18:13:27.816Z,89.78
2022-12-11T18:28:33.513Z,90.10
2022-12-11T18:43:37.455Z,90.37
2022-12-11T18:58:46.836Z,90.31
2022-12-11T19:13:54.055Z,90.30
2022-12-11T19:29:00.288Z,90.16
2022-12-11T19:44:02.314Z,90.46
2022-12-11T19:59:09.275Z,90.39
2022-12-11T20:14:22.364Z,90.31
2022-12-11T20:29:24.634Z,90.97
2022-12-11T20:44:26.599Z,90.75
2022-12-11T20:59:28.656Z,90.35
2022-12-11T21:14:31.436Z,90.53
2022-12-11T21:29:33.723Z,90.14
2022-12-11T21:59:57.675Z,90.28
2022-12-11T22:15:05.143Z,90.17
2022-12-11T22:30:08.673Z,90.15
2022-12-11T22:45:11.619Z,90.15
2022-12-11T23:00:14.478Z,90.11
2022-12-11T23:15:16.625Z,90.17
2022-12-11T23:30:18.576Z,90.16
2022-12-11T23:45:21.394Z,90.06
